createdAt,value
2023-05-25T00:00:59.902Z,11.30
2023-05-25T00:03:36.256Z,11.25
2023-05-25T00:06:05.682Z,11.21
2023-05-25T00:08:32.913Z,11.09
2023-05-25T00:11:00.270Z,11.17
2023-05-25T00:13:28.492Z,11.14
2023-05-25T00:15:56.370Z,11.14
2023-05-25T00:18:25.004Z,11.12
2023-05-25T00:20:58.552Z,11.08
2023-05-25T00:23:25.723Z,11.12
2023-05-25T00:25:52.886Z,10.93
2023-05-25T00:28:21.101Z,10.96
2023-05-25T00:30:49.358Z,10.91
2023-05-25T00:33:16.880Z,10.89
2023-05-25T00:35:45.133Z,10.87
2023-05-25T00:38:14.252Z,10.86
2023-05-25T00:40:41.678Z,10.82
2023-05-25T00:43:13.165Z,10.84
2023-05-25T00:45:41.616Z,10.80
2023-05-25T00:48:10.101Z,10.81
2023-05-25T00:50:42.390Z,10.79
2023-05-25T00:53:11.332Z,10.70
2023-05-25T00:55:46.017Z,10.70
2023-05-25T00:58:14.348Z,10.66
2023-05-25T01:00:44.324Z,10.65
2023-05-25T01:03:22.319Z,10.67
2023-05-25T01:05:53.967Z,10.64
2023-05-25T01:08:23.992Z,10.63
2023-05-25T01:10:54.047Z,10.63
2023-05-25T01:13:22.112Z,10.64
2023-05-25T01:15:51.395Z,10.58
2023-05-25T01:18:18.646Z,10.48
2023-05-25T01:21:17.986Z,10.54
2023-05-25T01:23:56.321Z,10.51
2023-05-25T01:26:29.625Z,10.50
2023-05-25T01:28:58.425Z,10.49
2023-05-25T01:31:26.224Z,10.39
2023-05-25T01:33:53.850Z,10.42
2023-05-25T01:36:21.439Z,10.42
2023-05-25T01:38:49.920Z,10.37
2023-05-25T01:41:17.170Z,10.31
2023-05-25T01:43:45.602Z,10.37
2023-05-25T01:46:20.140Z,10.33
2023-05-25T01:49:09.722Z,10.36
2023-05-25T01:51:55.381Z,10.24
2023-05-25T01:54:29.028Z,10.25
2023-05-25T01:57:01.552Z,10.21
2023-05-25T01:59:31.379Z,10.14
2023-05-25T02:02:01.143Z,10.18
2023-05-25T02:04:29.975Z,10.16
2023-05-25T02:06:57.308Z,10.18
2023-05-25T02:09:25.215Z,10.13
2023-05-25T02:11:53.346Z,10.05
2023-05-25T02:14:21.913Z,10.03
2023-05-25T02:16:49.120Z,9.98
2023-05-25T02:19:16.475Z,10.00
2023-05-25T02:21:44.637Z,9.96
2023-05-25T02:24:13.487Z,9.97
2023-05-25T02:26:41.422Z,9.93
2023-05-25T02:29:08.623Z,9.93
2023-05-25T02:31:38.307Z,9.89
2023-05-25T02:34:05.503Z,9.89
2023-05-25T02:36:35.652Z,9.83
2023-05-25T02:39:03.402Z,9.81
2023-05-25T02:41:30.817Z,9.81
2023-05-25T02:43:59.530Z,9.80
2023-05-25T02:46:26.950Z,9.78
2023-05-25T02:48:54.154Z,9.78
2023-05-25T02:51:25.212Z,9.79
2023-05-25T02:53:53.656Z,9.79
2023-05-25T02:56:23.530Z,9.79
2023-05-25T02:58:51.537Z,9.77
2023-05-25T03:01:19.346Z,9.68
2023-05-25T03:03:47.488Z,9.66
2023-05-25T03:06:15.403Z,9.62
2023-05-25T03:08:42.837Z,9.63
2023-05-25T03:11:10.342Z,9.63
2023-05-25T03:13:40.853Z,9.62
2023-05-25T03:16:09.282Z,9.59
2023-05-25T03:18:37.189Z,9.52
2023-05-25T03:21:09.030Z,9.49
2023-05-25T03:23:36.496Z,9.45
2023-05-25T03:26:03.664Z,9.46
2023-05-25T03:28:31.356Z,9.49
2023-05-25T03:30:58.493Z,9.43
2023-05-25T03:33:25.733Z,9.38
2023-05-25T03:35:53.403Z,9.36
2023-05-25T03:38:21.465Z,9.37
2023-05-25T03:40:48.959Z,9.40
2023-05-25T03:43:17.181Z,9.38
2023-05-25T03:45:46.166Z,9.38
2023-05-25T03:48:13.497Z,9.37
2023-05-25T03:50:41.216Z,9.33
2023-05-25T03:53:11.512Z,9.27
2023-05-25T03:55:39.346Z,9.24
2023-05-25T03:58:06.418Z,9.22
2023-05-25T04:00:33.724Z,9.24
2023-05-25T04:03:01.233Z,9.26
2023-05-25T04:05:29.002Z,9.33
2023-05-25T04:07:56.514Z,9.30
2023-05-25T04:10:23.712Z,9.29
2023-05-25T04:12:52.663Z,9.33
2023-05-25T04:15:22.466Z,9.36
2023-05-25T04:17:49.627Z,9.31
2023-05-25T04:20:16.911Z,9.44
2023-05-25T04:22:45.377Z,9.48
2023-05-25T04:25:13.263Z,9.56
2023-05-25T04:27:42.258Z,9.54
2023-05-25T04:30:11.165Z,9.55
2023-05-25T04:32:38.591Z,9.57
2023-05-25T04:35:05.995Z,9.59
2023-05-25T04:37:33.523Z,9.66
2023-05-25T04:40:01.743Z,9.65
2023-05-25T04:42:28.942Z,9.74
2023-05-25T04:44:56.312Z,9.80
2023-05-25T04:47:25.119Z,9.89
2023-05-25T04:49:54.340Z,9.93
2023-05-25T04:52:22.339Z,9.98
2023-05-25T04:54:49.802Z,10.01
2023-05-25T04:57:17.288Z,10.08
2023-05-25T04:59:45.560Z,10.09
2023-05-25T05:02:13.306Z,10.19
2023-05-25T05:04:41.308Z,10.30
2023-05-25T05:07:09.305Z,10.35
2023-05-25T05:09:37.208Z,10.50
2023-05-25T05:12:04.803Z,10.57
2023-05-25T05:14:32.382Z,10.68
2023-05-25T05:16:59.704Z,10.80
2023-05-25T05:19:26.997Z,10.89
2023-05-25T05:21:54.384Z,10.96
2023-05-25T05:24:22.122Z,11.03
2023-05-25T05:26:58.318Z,11.09
2023-05-25T05:29:28.256Z,11.14
2023-05-25T05:31:55.799Z,11.26
2023-05-25T05:34:23.154Z,11.32
2023-05-25T05:36:57.900Z,11.43
2023-05-25T05:39:29.102Z,11.47
2023-05-25T05:41:56.715Z,11.56
2023-05-25T05:44:27.090Z,11.57
2023-05-25T05:47:02.584Z,11.61
2023-05-25T05:49:31.312Z,11.67
2023-05-25T05:51:58.798Z,11.76
2023-05-25T05:54:28.051Z,11.88
2023-05-25T05:56:55.402Z,11.96
2023-05-25T05:59:23.009Z,11.84
2023-05-25T06:01:50.186Z,11.91
2023-05-25T06:04:19.867Z,12.00
2023-05-25T06:06:47.229Z,12.12
2023-05-25T06:09:14.409Z,12.31
2023-05-25T06:11:41.854Z,12.39
2023-05-25T06:14:09.244Z,12.42
2023-05-25T06:16:36.907Z,12.54
2023-05-25T06:19:04.715Z,12.65
2023-05-25T06:21:31.976Z,12.82
2023-05-25T06:23:59.126Z,13.03
2023-05-25T06:26:27.344Z,13.04
2023-05-25T06:28:54.528Z,13.04
2023-05-25T06:31:22.246Z,13.08
2023-05-25T06:33:49.449Z,13.30
2023-05-25T06:36:16.891Z,13.53
2023-05-25T06:38:44.505Z,13.78
2023-05-25T06:41:15.490Z,14.00
2023-05-25T06:43:42.769Z,14.07
2023-05-25T06:46:10.586Z,14.16
2023-05-25T06:48:39.218Z,14.49
2023-05-25T06:51:06.446Z,14.72
2023-05-25T06:53:33.638Z,14.54
2023-05-25T06:56:01.052Z,14.45
2023-05-25T06:58:28.838Z,14.28
2023-05-25T07:00:56.383Z,14.24
2023-05-25T07:03:23.609Z,14.37
2023-05-25T07:05:51.396Z,14.60
2023-05-25T07:08:18.790Z,14.86
2023-05-25T07:10:46.604Z,14.95
2023-05-25T07:13:15.560Z,14.82
2023-05-25T07:15:43.562Z,14.97
2023-05-25T07:18:12.926Z,15.05
2023-05-25T07:20:42.314Z,14.86
2023-05-25T07:23:12.989Z,14.72
2023-05-25T07:25:41.492Z,14.84
2023-05-25T07:28:11.951Z,14.66
2023-05-25T07:30:40.871Z,14.61
2023-05-25T07:33:08.649Z,14.70
2023-05-25T07:35:36.319Z,14.58
2023-05-25T07:38:07.296Z,14.57
2023-05-25T07:40:34.431Z,14.60
2023-05-25T07:43:02.051Z,14.59
2023-05-25T07:45:29.437Z,14.35
2023-05-25T07:47:56.869Z,14.52
2023-05-25T07:50:24.208Z,14.60
2023-05-25T07:52:51.385Z,14.39
2023-05-25T07:55:20.411Z,14.44
2023-05-25T07:57:47.540Z,14.53
2023-05-25T08:00:15.605Z,14.73
2023-05-25T08:02:42.955Z,14.91
2023-05-25T08:05:10.570Z,14.83
2023-05-25T08:07:40.086Z,14.85
2023-05-25T08:10:09.734Z,14.85
2023-05-25T08:12:48.042Z,14.96
2023-05-25T08:15:17.215Z,15.21
2023-05-25T08:17:44.930Z,15.18
2023-05-25T08:20:12.959Z,15.40
2023-05-25T08:22:40.730Z,15.58
2023-05-25T08:25:09.780Z,15.68
2023-05-25T08:27:39.664Z,15.66
2023-05-25T08:30:07.644Z,15.77
2023-05-25T08:32:34.958Z,15.52
2023-05-25T08:35:04.709Z,15.39
2023-05-25T08:37:32.362Z,15.76
2023-05-25T08:40:02.252Z,15.74
2023-05-25T08:42:29.875Z,16.00
2023-05-25T08:44:57.360Z,16.23
2023-05-25T08:47:28.100Z,16.22
2023-05-25T08:49:56.379Z,16.28
2023-05-25T08:52:29.023Z,15.87
2023-05-25T08:55:01.875Z,15.86
2023-05-25T08:57:37.301Z,15.71
2023-05-25T09:00:12.092Z,15.74
2023-05-25T09:02:51.481Z,15.79
2023-05-25T09:05:19.670Z,15.81
2023-05-25T09:07:48.108Z,15.83
2023-05-25T09:10:18.919Z,15.89
2023-05-25T09:12:46.809Z,16.22
2023-05-25T09:15:14.387Z,16.56
2023-05-25T09:17:41.805Z,16.54
2023-05-25T09:20:13.976Z,16.63
2023-05-25T09:22:42.253Z,16.87
2023-05-25T09:25:11.578Z,17.18
2023-05-25T09:27:39.324Z,17.57
2023-05-25T09:30:07.633Z,17.70
2023-05-25T09:32:36.222Z,17.49
2023-05-25T09:35:14.791Z,17.33
2023-05-25T09:37:43.549Z,17.37
2023-05-25T09:40:11.754Z,17.80
2023-05-25T09:42:39.138Z,18.09
2023-05-25T09:45:07.550Z,17.81
2023-05-25T09:47:37.679Z,17.32
2023-05-25T09:50:05.809Z,17.07
2023-05-25T09:52:33.202Z,16.45
2023-05-25T09:55:02.388Z,16.46
2023-05-25T09:57:30.212Z,16.70
2023-05-25T09:59:57.456Z,16.83
2023-05-25T10:02:24.929Z,17.48
2023-05-25T10:04:55.035Z,17.67
2023-05-25T10:07:22.869Z,17.86
2023-05-25T10:09:53.592Z,17.79
2023-05-25T10:12:24.257Z,18.00
2023-05-25T10:14:52.076Z,18.18
2023-05-25T10:17:23.549Z,18.05
2023-05-25T10:19:57.631Z,18.02
2023-05-25T10:22:40.754Z,18.12
2023-05-25T10:25:21.133Z,18.10
2023-05-25T10:28:12.678Z,18.00
2023-05-25T10:30:41.420Z,18.22
2023-05-25T10:33:10.942Z,18.24
2023-05-25T10:35:56.130Z,18.13
2023-05-25T10:38:29.060Z,17.64
2023-05-25T10:40:56.345Z,17.74
2023-05-25T10:43:24.592Z,17.74
2023-05-25T10:45:52.449Z,17.67
2023-05-25T10:48:21.935Z,17.47
2023-05-25T10:50:52.729Z,17.51
2023-05-25T10:53:23.830Z,17.36
2023-05-25T10:55:53.876Z,17.73
2023-05-25T10:58:23.461Z,17.76
2023-05-25T11:01:07.479Z,17.89
2023-05-25T11:03:53.334Z,18.00
2023-05-25T11:06:22.768Z,17.95
2023-05-25T11:08:55.943Z,17.56
2023-05-25T11:11:43.366Z,17.63
2023-05-25T11:14:44.504Z,17.31
2023-05-25T11:17:22.383Z,17.63
2023-05-25T11:19:54.951Z,17.69
2023-05-25T11:22:33.616Z,17.86
2023-05-25T11:25:02.838Z,17.86
2023-05-25T11:27:31.888Z,17.98
2023-05-25T11:30:00.778Z,17.96
2023-05-25T11:32:28.559Z,18.13
2023-05-25T11:34:58.108Z,18.35
2023-05-25T11:37:31.606Z,18.62
2023-05-25T11:39:59.094Z,18.45
2023-05-25T11:42:26.400Z,18.50
2023-05-25T11:44:53.722Z,18.52
2023-05-25T11:47:25.217Z,18.50
2023-05-25T11:49:55.960Z,18.31
2023-05-25T11:52:23.350Z,18.25
2023-05-25T11:54:51.069Z,18.07
2023-05-25T11:57:24.690Z,17.94
2023-05-25T11:59:57.725Z,18.11
2023-05-25T12:02:25.237Z,17.65
2023-05-25T12:04:56.332Z,17.66
2023-05-25T12:07:24.462Z,17.97
2023-05-25T12:10:12.198Z,18.15
2023-05-25T12:12:49.477Z,18.90
2023-05-25T12:15:27.743Z,19.10
2023-05-25T12:17:55.050Z,19.22
2023-05-25T12:20:22.674Z,18.96
2023-05-25T12:22:50.111Z,18.97
2023-05-25T12:25:22.143Z,19.18
2023-05-25T12:27:49.711Z,18.79
2023-05-25T12:30:17.433Z,18.52
2023-05-25T12:33:04.262Z,17.76
2023-05-25T12:35:50.029Z,17.68
2023-05-25T12:38:19.862Z,17.91
2023-05-25T12:40:47.886Z,18.02
2023-05-25T12:43:17.454Z,17.98
2023-05-25T12:45:47.843Z,17.54
2023-05-25T12:48:15.916Z,17.56
2023-05-25T12:50:58.706Z,17.73
2023-05-25T12:53:27.317Z,17.52
2023-05-25T12:56:02.803Z,17.59
2023-05-25T12:58:30.244Z,17.90
2023-05-25T13:00:57.430Z,17.75
2023-05-25T13:03:25.024Z,17.84
2023-05-25T13:06:00.635Z,17.79
2023-05-25T13:08:28.849Z,17.94
2023-05-25T13:10:56.439Z,18.43
2023-05-25T13:13:23.628Z,18.79
2023-05-25T13:15:51.254Z,18.79
2023-05-25T13:18:18.514Z,18.79
2023-05-25T13:20:49.527Z,18.70
2023-05-25T13:23:18.599Z,18.54
2023-05-25T13:25:47.020Z,18.44
2023-05-25T13:28:14.314Z,18.39
2023-05-25T13:30:42.830Z,18.42
2023-05-25T13:33:11.054Z,18.26
2023-05-25T13:35:45.886Z,18.51
2023-05-25T13:38:17.273Z,19.49
2023-05-25T13:40:48.113Z,20.81
2023-05-25T13:43:15.857Z,20.85
2023-05-25T13:45:43.384Z,20.78
2023-05-25T13:48:10.701Z,19.72
2023-05-25T13:50:38.402Z,19.36
2023-05-25T13:53:05.499Z,19.24
2023-05-25T13:55:32.825Z,19.38
2023-05-25T13:58:00.047Z,19.42
2023-05-25T14:00:27.857Z,19.70
2023-05-25T14:02:55.171Z,19.61
2023-05-25T14:05:22.870Z,19.49
2023-05-25T14:07:50.325Z,19.98
2023-05-25T14:10:18.411Z,20.27
2023-05-25T14:12:46.417Z,19.65
2023-05-25T14:15:13.607Z,19.73
2023-05-25T14:17:40.862Z,20.08
2023-05-25T14:20:09.625Z,20.48
2023-05-25T14:22:39.059Z,20.71
2023-05-25T14:25:06.777Z,21.20
2023-05-25T14:27:33.937Z,21.74
2023-05-25T14:30:01.047Z,20.87
2023-05-25T14:32:28.367Z,20.96
2023-05-25T14:34:55.642Z,21.21
2023-05-25T14:37:22.776Z,21.05
2023-05-25T14:39:50.150Z,20.99
2023-05-25T14:42:17.586Z,21.19
2023-05-25T14:44:45.645Z,21.64
2023-05-25T14:47:13.103Z,21.62
2023-05-25T14:49:40.733Z,21.64
2023-05-25T14:52:08.888Z,21.42
2023-05-25T14:54:36.225Z,21.23
2023-05-25T14:57:04.236Z,21.68
2023-05-25T14:59:32.931Z,21.62
2023-05-25T15:02:00.405Z,21.06
2023-05-25T15:04:30.098Z,21.51
2023-05-25T15:06:58.198Z,21.73
2023-05-25T15:09:25.523Z,21.95
2023-05-25T15:11:52.922Z,22.34
2023-05-25T15:14:20.413Z,22.37
2023-05-25T15:16:47.671Z,22.47
2023-05-25T15:19:18.472Z,22.20
2023-05-25T15:21:45.788Z,22.58
2023-05-25T15:24:16.735Z,23.09
2023-05-25T15:26:44.700Z,22.43
2023-05-25T15:29:12.032Z,22.40
2023-05-25T15:31:39.566Z,22.59
2023-05-25T15:34:06.864Z,23.23
2023-05-25T15:36:33.991Z,22.95
2023-05-25T15:39:01.463Z,22.50
2023-05-25T15:41:29.040Z,22.20
2023-05-25T15:44:01.939Z,21.51
2023-05-25T15:46:29.232Z,21.46
2023-05-25T15:48:56.621Z,21.81
2023-05-25T15:51:24.033Z,21.55
2023-05-25T15:53:51.420Z,21.97
2023-05-25T15:56:18.638Z,21.22
2023-05-25T15:58:49.018Z,21.03
2023-05-25T16:01:16.849Z,20.72
2023-05-25T16:03:45.289Z,21.69
2023-05-25T16:06:12.902Z,21.89
2023-05-25T16:08:40.076Z,22.11
2023-05-25T16:11:07.614Z,22.43
2023-05-25T16:13:34.911Z,22.40
2023-05-25T16:16:02.255Z,21.28
2023-05-25T16:18:29.446Z,21.83
2023-05-25T16:20:57.770Z,21.63
2023-05-25T16:23:25.604Z,21.02
2023-05-25T16:25:53.837Z,20.96
2023-05-25T16:28:21.384Z,21.37
2023-05-25T16:30:48.588Z,21.21
2023-05-25T16:33:16.074Z,21.37
2023-05-25T16:35:45.699Z,21.26
2023-05-25T16:38:13.112Z,20.52
2023-05-25T16:40:41.012Z,20.48
2023-05-25T16:43:09.158Z,19.96
2023-05-25T16:45:36.582Z,19.78
2023-05-25T16:48:04.422Z,19.69
2023-05-25T16:50:31.962Z,19.57
2023-05-25T16:52:59.240Z,19.60
2023-05-25T16:55:26.473Z,19.75
2023-05-25T16:57:53.684Z,19.20
2023-05-25T17:00:21.770Z,18.90
2023-05-25T17:02:49.328Z,18.48
2023-05-25T17:05:16.592Z,18.37
2023-05-25T17:07:46.227Z,17.96
2023-05-25T17:10:15.595Z,17.93
2023-05-25T17:12:42.946Z,17.95
2023-05-25T17:15:11.418Z,17.84
2023-05-25T17:17:38.699Z,17.55
2023-05-25T17:20:07.032Z,17.44
2023-05-25T17:22:34.299Z,17.04
2023-05-25T17:25:01.609Z,16.87
2023-05-25T17:27:29.010Z,16.93
2023-05-25T17:29:56.376Z,16.97
2023-05-25T17:32:23.552Z,17.02
2023-05-25T17:34:50.923Z,16.85
2023-05-25T17:37:19.056Z,16.61
2023-05-25T17:39:46.976Z,16.69
2023-05-25T17:42:14.405Z,16.60
2023-05-25T17:44:42.600Z,16.66
2023-05-25T17:47:11.221Z,16.85
2023-05-25T17:49:41.954Z,16.91
2023-05-25T17:52:09.269Z,17.03
2023-05-25T17:54:36.683Z,16.91
2023-05-25T17:57:04.593Z,16.93
2023-05-25T17:59:31.839Z,16.87
2023-05-25T18:01:59.277Z,16.91
2023-05-25T18:04:26.685Z,16.76
2023-05-25T18:06:54.125Z,16.81
2023-05-25T18:09:22.164Z,16.63
2023-05-25T18:11:49.391Z,16.59
2023-05-25T18:14:16.642Z,16.61
2023-05-25T18:16:45.221Z,16.48
2023-05-25T18:19:15.688Z,16.37
2023-05-25T18:21:42.830Z,16.17
2023-05-25T18:24:10.564Z,16.07
2023-05-25T18:26:38.366Z,16.04
2023-05-25T18:29:05.764Z,16.11
2023-05-25T18:31:33.401Z,15.92
2023-05-25T18:34:00.979Z,15.93
2023-05-25T18:36:28.312Z,15.82
2023-05-25T18:38:55.646Z,15.69
2023-05-25T18:41:24.482Z,15.43
2023-05-25T18:43:52.309Z,15.31
2023-05-25T18:46:19.952Z,15.28
2023-05-25T18:48:47.129Z,15.31
2023-05-25T18:51:15.820Z,15.37
2023-05-25T18:53:47.751Z,15.25
2023-05-25T18:56:15.426Z,14.88
2023-05-25T18:58:42.693Z,14.97
2023-05-25T19:01:09.787Z,14.84
2023-05-25T19:03:37.541Z,14.73
2023-05-25T19:06:05.180Z,14.67
2023-05-25T19:08:32.512Z,14.59
2023-05-25T19:10:59.774Z,14.55
2023-05-25T19:13:26.982Z,14.61
2023-05-25T19:15:54.176Z,14.52
2023-05-25T19:18:22.302Z,14.57
2023-05-25T19:20:49.895Z,14.47
2023-05-25T19:23:19.585Z,14.35
2023-05-25T19:25:47.306Z,14.34
2023-05-25T19:28:15.479Z,14.34
2023-05-25T19:30:42.704Z,14.18
2023-05-25T19:33:10.081Z,14.17
2023-05-25T19:35:38.057Z,14.18
2023-05-25T19:38:05.532Z,14.20
2023-05-25T19:40:33.358Z,14.13
2023-05-25T19:43:00.843Z,14.05
2023-05-25T19:45:28.463Z,13.96
2023-05-25T19:47:57.058Z,13.88
2023-05-25T19:50:28.083Z,13.75
2023-05-25T19:52:55.241Z,13.79
2023-05-25T19:55:22.885Z,13.77
2023-05-25T19:57:50.224Z,13.71
2023-05-25T20:00:25.915Z,13.61
2023-05-25T20:02:54.358Z,13.52
2023-05-25T20:05:22.277Z,13.45
2023-05-25T20:07:52.246Z,13.32
2023-05-25T20:10:22.342Z,13.32
2023-05-25T20:12:49.954Z,13.21
2023-05-25T20:15:17.657Z,13.21
2023-05-25T20:17:46.090Z,13.13
2023-05-25T20:20:14.101Z,13.02
2023-05-25T20:22:41.503Z,13.03
2023-05-25T20:25:11.424Z,13.06
2023-05-25T20:27:38.976Z,13.01
2023-05-25T20:30:07.079Z,12.92
2023-05-25T20:32:34.523Z,12.89
2023-05-25T20:35:02.008Z,12.84
2023-05-25T20:37:29.483Z,12.85
2023-05-25T20:39:57.159Z,12.79
2023-05-25T20:42:24.863Z,12.66
2023-05-25T20:44:52.979Z,12.70
2023-05-25T20:47:21.093Z,12.68
2023-05-25T20:49:48.433Z,12.53
2023-05-25T20:52:16.172Z,12.49
2023-05-25T20:54:45.320Z,12.37
2023-05-25T20:57:13.219Z,12.28
2023-05-25T20:59:40.692Z,12.33
2023-05-25T21:02:08.380Z,12.28
2023-05-25T21:04:35.791Z,12.25
2023-05-25T21:07:02.953Z,12.24
2023-05-25T21:09:30.163Z,12.24
2023-05-25T21:11:57.625Z,12.09
2023-05-25T21:14:25.301Z,12.12
2023-05-25T21:16:52.509Z,11.97
2023-05-25T21:19:20.973Z,11.94
2023-05-25T21:21:48.283Z,11.93
2023-05-25T21:24:15.722Z,11.80
2023-05-25T21:26:43.074Z,11.85
2023-05-25T21:29:10.402Z,11.82
2023-05-25T21:31:38.410Z,11.71
2023-05-25T21:34:05.739Z,11.65
2023-05-25T21:36:33.065Z,11.69
2023-05-25T21:39:00.414Z,11.71
2023-05-25T21:41:28.195Z,11.70
2023-05-25T21:43:55.695Z,11.68
2023-05-25T21:46:22.885Z,11.64
2023-05-25T21:48:50.055Z,11.56
2023-05-25T21:51:17.398Z,11.53
2023-05-25T21:53:47.319Z,11.57
2023-05-25T21:56:15.595Z,11.53
2023-05-25T21:58:42.854Z,11.50
2023-05-25T22:01:10.086Z,11.44
2023-05-25T22:03:37.351Z,11.27
2023-05-25T22:06:04.690Z,11.38
2023-05-25T22:08:31.840Z,11.31
2023-05-25T22:10:59.001Z,11.31
2023-05-25T22:13:26.150Z,11.37
2023-05-25T22:15:53.279Z,11.31
2023-05-25T22:18:21.236Z,11.21
2023-05-25T22:20:48.361Z,11.13
2023-05-25T22:23:15.709Z,11.15
2023-05-25T22:25:43.052Z,11.11
2023-05-25T22:28:11.428Z,11.00
2023-05-25T22:30:38.701Z,11.01
2023-05-25T22:33:06.142Z,10.95
2023-05-25T22:35:33.476Z,10.88
2023-05-25T22:38:00.707Z,10.91
2023-05-25T22:40:28.039Z,10.93
2023-05-25T22:42:55.412Z,10.90
2023-05-25T22:45:22.912Z,10.94
2023-05-25T22:47:50.119Z,10.77
2023-05-25T22:50:17.594Z,10.75
2023-05-25T22:52:45.471Z,10.74
2023-05-25T22:55:12.766Z,10.68
2023-05-25T22:57:40.196Z,10.70
2023-05-25T23:00:08.680Z,10.76
2023-05-25T23:02:36.351Z,10.67
2023-05-25T23:05:05.649Z,10.66
2023-05-25T23:07:33.222Z,10.58
2023-05-25T23:10:00.530Z,10.58
2023-05-25T23:12:28.366Z,10.50
2023-05-25T23:14:59.440Z,10.51
2023-05-25T23:17:26.888Z,10.43
2023-05-25T23:19:55.023Z,10.44
2023-05-25T23:22:22.422Z,10.38
2023-05-25T23:24:49.576Z,10.33
2023-05-25T23:27:16.887Z,10.32
2023-05-25T23:29:44.233Z,10.34
2023-05-25T23:32:11.571Z,10.27
2023-05-25T23:34:38.896Z,10.26
2023-05-25T23:37:06.725Z,10.24
2023-05-25T23:39:34.108Z,10.21
2023-05-25T23:42:02.428Z,10.16
2023-05-25T23:44:29.580Z,10.20
2023-05-25T23:46:56.747Z,10.20
2023-05-25T23:49:24.081Z,10.21
2023-05-25T23:51:51.936Z,10.20
2023-05-25T23:54:19.553Z,10.17
2023-05-25T23:56:46.859Z,10.17
2023-05-25T23:59:15.322Z,10.08
